createdAt,value
2023-11-10T00:00:42.108Z,22.8
2023-11-10T00:01:43.945Z,22.8
2023-11-10T00:02:46.084Z,22.8
2023-11-10T00:03:49.063Z,22.8
2023-11-10T00:04:52.261Z,22.8
2023-11-10T00:05:54.982Z,22.8
2023-11-10T00:06:57.452Z,22.7
2023-11-10T00:07:59.182Z,22.8
2023-11-10T00:09:01.037Z,22.8
2023-11-10T00:10:02.886Z,22.8
2023-11-10T00:11:04.669Z,22.8
2023-11-10T00:12:06.546Z,22.8
2023-11-10T00:13:08.526Z,22.8
2023-11-10T00:14:16.407Z,22.8
2023-11-10T00:15:36.505Z,22.8
2023-11-10T00:16:38.441Z,22.8
2023-11-10T00:17:40.297Z,22.8
2023-11-10T00:18:42.232Z,22.8
2023-11-10T00:19:44.225Z,22.8
2023-11-10T00:20:46.150Z,22.9
2023-11-10T00:21:47.996Z,22.9
2023-11-10T00:22:49.761Z,22.9
2023-11-10T00:23:51.548Z,22.9
2023-11-10T00:24:53.337Z,22.8
2023-11-10T00:25:55.177Z,22.8
2023-11-10T00:26:56.968Z,22.9
2023-11-10T00:27:58.746Z,22.8
2023-11-10T00:29:00.533Z,22.8
2023-11-10T00:30:02.333Z,22.9
2023-11-10T00:31:04.125Z,22.9
2023-11-10T00:32:05.959Z,22.9
2023-11-10T00:33:08.118Z,22.9
2023-11-10T00:34:10.770Z,22.9
2023-11-10T00:35:13.063Z,22.9
2023-11-10T00:36:15.039Z,22.9
2023-11-10T00:37:16.925Z,22.9
2023-11-10T00:38:21.549Z,22.8
2023-11-10T00:39:25.592Z,22.9
2023-11-10T00:40:27.574Z,22.9
2023-11-10T00:41:29.445Z,22.8
2023-11-10T00:42:31.370Z,22.8
2023-11-10T00:43:33.253Z,22.8
2023-11-10T00:44:35.017Z,22.8
2023-11-10T00:45:37.013Z,22.8
2023-11-10T00:46:39.012Z,22.8
2023-11-10T00:47:41.243Z,22.8
2023-11-10T00:48:43.071Z,22.8
2023-11-10T00:49:45.128Z,22.9
2023-11-10T00:50:46.955Z,22.9
2023-11-10T00:51:48.764Z,22.9
2023-11-10T00:52:50.556Z,22.8
2023-11-10T00:53:52.500Z,22.8
2023-11-10T00:54:54.304Z,22.8
2023-11-10T00:55:56.252Z,22.8
2023-11-10T00:56:58.066Z,22.8
2023-11-10T00:57:59.869Z,22.8
2023-11-10T00:59:01.731Z,22.8
2023-11-10T01:00:03.550Z,22.8
2023-11-10T01:01:05.414Z,22.8
2023-11-10T01:02:07.330Z,22.8
2023-11-10T01:03:09.842Z,22.8
2023-11-10T01:04:12.566Z,22.9
2023-11-10T01:05:14.853Z,22.8
2023-11-10T01:06:17.051Z,22.8
2023-11-10T01:07:19.446Z,22.8
2023-11-10T01:08:21.331Z,22.8
2023-11-10T01:09:23.183Z,22.8
2023-11-10T01:10:25.088Z,22.8
2023-11-10T01:11:27.020Z,22.8
2023-11-10T01:12:29.088Z,22.8
2023-11-10T01:13:31.023Z,22.8
2023-11-10T01:14:32.821Z,22.8
2023-11-10T01:15:34.605Z,22.8
2023-11-10T01:16:36.809Z,22.8
2023-11-10T01:17:38.861Z,22.8
2023-11-10T01:18:40.973Z,22.8
2023-11-10T01:19:42.841Z,22.8
2023-11-10T01:20:44.649Z,22.8
2023-11-10T01:21:46.673Z,22.8
2023-11-10T01:22:48.863Z,22.8
2023-11-10T01:23:50.661Z,22.8
2023-11-10T01:24:52.457Z,22.8
2023-11-10T01:25:54.282Z,22.8
2023-11-10T01:26:56.124Z,22.8
2023-11-10T01:27:57.962Z,22.8
2023-11-10T01:28:59.756Z,22.8
2023-11-10T01:30:01.546Z,22.8
2023-11-10T01:31:03.536Z,22.8
2023-11-10T01:32:05.387Z,22.8
2023-11-10T01:33:07.433Z,22.8
2023-11-10T01:34:10.017Z,22.8
2023-11-10T01:35:12.129Z,22.8
2023-11-10T01:36:14.052Z,22.8
2023-11-10T01:37:16.187Z,22.8
2023-11-10T01:38:17.990Z,22.8
2023-11-10T01:39:19.789Z,22.8
2023-11-10T01:40:21.684Z,22.8
2023-11-10T01:41:23.508Z,22.8
2023-11-10T01:42:28.079Z,22.8
2023-11-10T01:43:29.921Z,22.8
2023-11-10T01:44:31.717Z,22.8
2023-11-10T01:45:33.567Z,22.8
2023-11-10T01:46:35.690Z,22.8
2023-11-10T01:47:37.976Z,22.8
2023-11-10T01:48:40.029Z,22.8
2023-11-10T01:49:42.136Z,22.8
2023-11-10T01:50:44.195Z,22.8
2023-11-10T01:51:46.604Z,22.8
2023-11-10T01:52:49.024Z,22.8
2023-11-10T01:53:50.750Z,22.8
2023-11-10T01:54:52.543Z,22.8
2023-11-10T01:55:54.313Z,22.8
2023-11-10T01:56:56.146Z,22.7
2023-11-10T01:57:57.955Z,22.8
2023-11-10T01:58:59.704Z,22.8
2023-11-10T02:00:01.451Z,22.7
2023-11-10T02:01:03.165Z,22.8
2023-11-10T02:02:05.362Z,22.8
2023-11-10T02:03:07.947Z,22.8
2023-11-10T02:04:11.331Z,22.8
2023-11-10T02:05:13.518Z,22.8
2023-11-10T02:06:15.447Z,22.8
2023-11-10T02:07:17.387Z,22.8
2023-11-10T02:08:19.230Z,22.8
2023-11-10T02:09:21.119Z,22.8
2023-11-10T02:10:23.095Z,22.8
2023-11-10T02:11:24.893Z,22.8
2023-11-10T02:12:26.957Z,22.8
2023-11-10T02:13:28.816Z,22.8
2023-11-10T02:14:30.762Z,22.8
2023-11-10T02:15:32.638Z,22.8
2023-11-10T02:16:34.622Z,22.8
2023-11-10T02:17:36.727Z,22.8
2023-11-10T02:18:38.571Z,22.8
2023-11-10T02:19:40.641Z,22.8
2023-11-10T02:20:42.371Z,22.8
2023-11-10T02:21:44.230Z,22.8
2023-11-10T02:22:46.383Z,22.8
2023-11-10T02:23:48.227Z,22.8
2023-11-10T02:24:49.982Z,22.8
2023-11-10T02:25:51.945Z,22.8
2023-11-10T02:26:53.686Z,22.8
2023-11-10T02:27:55.443Z,22.8
2023-11-10T02:28:57.314Z,22.7
2023-11-10T02:29:59.064Z,22.7
2023-11-10T02:31:00.857Z,22.7
2023-11-10T02:32:02.865Z,22.7
2023-11-10T02:33:04.644Z,22.7
2023-11-10T02:34:06.796Z,22.7
2023-11-10T02:35:08.600Z,22.7
2023-11-10T02:36:10.469Z,22.7
2023-11-10T02:37:12.481Z,22.7
2023-11-10T02:38:14.230Z,22.7
2023-11-10T02:39:16.199Z,22.7
2023-11-10T02:40:18.101Z,22.7
2023-11-10T02:41:19.841Z,22.7
2023-11-10T02:42:21.600Z,22.7
2023-11-10T02:43:23.553Z,22.8
2023-11-10T02:44:25.329Z,22.7
2023-11-10T02:45:27.116Z,22.7
2023-11-10T02:46:32.134Z,22.8
2023-11-10T02:47:34.157Z,22.7
2023-11-10T02:48:36.303Z,22.8
2023-11-10T02:49:38.641Z,22.7
2023-11-10T02:50:40.503Z,22.7
2023-11-10T02:51:42.478Z,22.7
2023-11-10T02:52:44.505Z,22.7
2023-11-10T02:53:46.478Z,22.7
2023-11-10T02:54:48.523Z,22.7
2023-11-10T02:55:50.305Z,22.7
2023-11-10T02:56:52.128Z,22.7
2023-11-10T02:57:53.895Z,22.8
2023-11-10T02:58:55.685Z,22.5
2023-11-10T02:59:57.490Z,22.7
2023-11-10T03:00:59.305Z,22.7
2023-11-10T03:02:01.068Z,22.7
2023-11-10T03:03:06.097Z,22.7
2023-11-10T03:04:08.641Z,22.6
2023-11-10T03:05:10.897Z,22.7
2023-11-10T03:06:12.846Z,22.7
2023-11-10T03:07:14.667Z,22.7
2023-11-10T03:08:16.472Z,22.7
2023-11-10T03:09:18.465Z,22.7
2023-11-10T03:10:20.505Z,22.7
2023-11-10T03:11:22.289Z,22.8
2023-11-10T03:12:24.112Z,22.8
2023-11-10T03:13:26.028Z,22.8
2023-11-10T03:14:27.769Z,22.8
2023-11-10T03:15:29.852Z,22.8
2023-11-10T03:16:31.881Z,22.8
2023-11-10T03:17:33.752Z,22.8
2023-11-10T03:18:36.012Z,22.8
2023-11-10T03:19:38.646Z,22.8
2023-11-10T03:20:40.484Z,22.8
2023-11-10T03:21:42.576Z,22.8
2023-11-10T03:22:44.949Z,22.8
2023-11-10T03:23:46.888Z,22.8
2023-11-10T03:24:48.781Z,22.8
2023-11-10T03:25:50.765Z,22.8
2023-11-10T03:26:52.573Z,22.8
2023-11-10T03:27:54.335Z,22.7
2023-11-10T03:28:56.081Z,22.7
2023-11-10T03:29:57.825Z,22.7
2023-11-10T03:30:59.601Z,22.7
2023-11-10T03:32:01.466Z,22.7
2023-11-10T03:33:03.395Z,22.8
2023-11-10T03:34:05.524Z,22.8
2023-11-10T03:35:07.271Z,22.8
2023-11-10T03:36:09.137Z,22.7
2023-11-10T03:37:11.060Z,22.7
2023-11-10T03:38:12.870Z,22.8
2023-11-10T03:39:14.689Z,22.8
2023-11-10T03:40:16.643Z,22.7
2023-11-10T03:41:18.468Z,22.7
2023-11-10T03:42:20.310Z,22.7
2023-11-10T03:43:22.106Z,22.7
2023-11-10T03:44:23.863Z,22.7
2023-11-10T03:45:25.677Z,22.7
2023-11-10T03:46:27.694Z,22.8
2023-11-10T03:47:29.757Z,22.8
2023-11-10T03:48:31.779Z,22.8
2023-11-10T03:49:33.833Z,22.8
2023-11-10T03:50:35.587Z,22.8
2023-11-10T03:51:37.469Z,22.8
2023-11-10T03:52:39.611Z,22.8
2023-11-10T03:53:41.371Z,22.8
2023-11-10T03:54:43.329Z,22.8
2023-11-10T03:55:45.270Z,22.8
2023-11-10T03:56:47.088Z,22.8
2023-11-10T03:57:49.040Z,22.8
2023-11-10T03:58:50.882Z,22.8
2023-11-10T03:59:52.835Z,22.8
2023-11-10T04:00:57.327Z,22.8
2023-11-10T04:01:59.292Z,22.8
2023-11-10T04:03:01.433Z,22.8
2023-11-10T04:04:03.726Z,22.8
2023-11-10T04:05:05.898Z,22.8
2023-11-10T04:06:07.657Z,22.8
2023-11-10T04:07:09.930Z,22.7
2023-11-10T04:08:12.243Z,22.6
2023-11-10T04:09:14.099Z,22.5
2023-11-10T04:10:15.897Z,22.6
2023-11-10T04:11:18.031Z,22.5
2023-11-10T04:12:19.932Z,22.5
2023-11-10T04:13:21.752Z,22.6
2023-11-10T04:14:23.542Z,22.6
2023-11-10T04:15:25.414Z,22.6
2023-11-10T04:16:27.452Z,22.5
2023-11-10T04:17:30.059Z,22.7
2023-11-10T04:18:32.145Z,22.6
2023-11-10T04:19:34.182Z,22.6
2023-11-10T04:20:36.288Z,22.5
2023-11-10T04:21:38.295Z,22.3
2023-11-10T04:22:40.345Z,22.5
2023-11-10T04:23:42.121Z,22.5
2023-11-10T04:24:44.114Z,22.5
2023-11-10T04:25:46.084Z,22.6
2023-11-10T04:26:48.100Z,22.5
2023-11-10T04:27:50.073Z,22.5
2023-11-10T04:28:52.209Z,22.5
2023-11-10T04:29:54.359Z,22.6
2023-11-10T04:30:56.462Z,22.6
2023-11-10T04:31:58.837Z,22.6
2023-11-10T04:33:01.045Z,22.5
2023-11-10T04:34:03.161Z,22.5
2023-11-10T04:35:05.065Z,22.5
2023-11-10T04:36:06.868Z,22.5
2023-11-10T04:37:08.701Z,22.7
2023-11-10T04:38:10.543Z,22.6
2023-11-10T04:39:12.683Z,22.4
2023-11-10T04:40:14.636Z,22.5
2023-11-10T04:41:16.680Z,22.5
2023-11-10T04:42:18.541Z,22.4
2023-11-10T04:43:20.631Z,22.5
2023-11-10T04:44:22.447Z,22.5
2023-11-10T04:45:24.334Z,22.4
2023-11-10T04:46:26.313Z,22.5
2023-11-10T04:47:28.373Z,22.5
2023-11-10T04:48:30.458Z,22.5
2023-11-10T04:49:32.310Z,22.5
2023-11-10T04:50:34.141Z,22.5
2023-11-10T04:51:37.484Z,22.4
2023-11-10T04:52:39.489Z,22.5
2023-11-10T04:53:41.299Z,22.4
2023-11-10T04:54:43.343Z,22.4
2023-11-10T04:55:45.338Z,22.3
2023-11-10T04:56:47.187Z,22.3
2023-11-10T04:57:49.148Z,22.4
2023-11-10T04:58:51.430Z,22.3
2023-11-10T04:59:53.312Z,22.5
2023-11-10T05:00:55.226Z,22.4
2023-11-10T05:01:57.108Z,22.4
2023-11-10T05:02:59.137Z,22.4
2023-11-10T05:04:01.347Z,22.4
2023-11-10T05:05:03.663Z,22.3
2023-11-10T05:06:05.478Z,22.4
2023-11-10T05:07:07.291Z,22.3
2023-11-10T05:08:09.063Z,22.4
2023-11-10T05:09:10.942Z,22.5
2023-11-10T05:10:12.706Z,22.6
2023-11-10T05:11:14.565Z,22.7
2023-11-10T05:12:16.538Z,22.6
2023-11-10T05:13:18.657Z,22.7
2023-11-10T05:14:20.612Z,22.7
2023-11-10T05:15:22.422Z,22.8
2023-11-10T05:16:24.307Z,22.6
2023-11-10T05:17:26.235Z,22.5
2023-11-10T05:19:41.933Z,22.6
2023-11-10T05:20:43.868Z,22.7
2023-11-10T05:21:45.858Z,22.7
2023-11-10T05:22:48.020Z,22.7
2023-11-10T05:23:49.838Z,22.8
2023-11-10T05:24:51.829Z,22.9
2023-11-10T05:25:53.749Z,22.9
2023-11-10T05:26:55.510Z,22.9
2023-11-10T05:28:01.565Z,22.9
2023-11-10T05:29:04.110Z,22.9
2023-11-10T05:30:05.943Z,22.9
2023-11-10T05:31:07.737Z,22.9
2023-11-10T05:32:09.477Z,22.9
2023-11-10T05:33:11.421Z,22.8
2023-11-10T05:34:13.288Z,22.9
2023-11-10T05:35:15.084Z,22.9
2023-11-10T05:36:17.080Z,22.8
2023-11-10T05:37:18.993Z,22.8
2023-11-10T05:38:20.764Z,22.9
2023-11-10T05:39:22.688Z,22.9
2023-11-10T05:40:24.624Z,22.9
2023-11-10T05:41:26.432Z,22.9
2023-11-10T05:42:28.292Z,22.9
2023-11-10T05:43:30.188Z,22.9
2023-11-10T05:44:31.994Z,22.9
2023-11-10T05:45:33.855Z,23
2023-11-10T05:46:35.818Z,23
2023-11-10T05:47:37.866Z,23
2023-11-10T05:48:39.806Z,23
2023-11-10T05:49:41.712Z,23
2023-11-10T05:50:43.695Z,23
2023-11-10T05:51:45.710Z,23
2023-11-10T05:52:47.664Z,22.9
2023-11-10T05:53:49.412Z,22.9
2023-11-10T05:54:51.230Z,22.8
2023-11-10T05:55:53.121Z,22.8
2023-11-10T05:56:54.913Z,22.8
2023-11-10T05:57:56.796Z,22.8
2023-11-10T05:58:58.633Z,22.8
2023-11-10T06:00:00.543Z,22.7
2023-11-10T06:01:02.555Z,22.7
2023-11-10T06:02:04.765Z,22.7
2023-11-10T06:03:06.863Z,22.8
2023-11-10T06:04:25.272Z,22.6
2023-11-10T06:05:38.116Z,22.5
2023-11-10T06:06:40.011Z,22.4
2023-11-10T06:07:41.863Z,22.4
2023-11-10T06:08:43.594Z,22.4
2023-11-10T06:09:45.430Z,22.4
2023-11-10T06:10:47.485Z,22.4
2023-11-10T06:11:56.396Z,22.4
2023-11-10T06:12:58.648Z,22.5
2023-11-10T06:14:00.617Z,22.5
2023-11-10T06:15:02.411Z,22.5
2023-11-10T06:16:04.550Z,22.6
2023-11-10T06:17:06.715Z,22.6
2023-11-10T06:18:08.750Z,22.6
2023-11-10T06:19:10.788Z,22.5
2023-11-10T06:20:12.567Z,22.6
2023-11-10T06:21:14.401Z,22.6
2023-11-10T06:22:16.140Z,22.6
2023-11-10T06:23:17.928Z,22.5
2023-11-10T06:24:19.759Z,22.5
2023-11-10T06:25:21.597Z,22.6
2023-11-10T06:26:23.423Z,22.6
2023-11-10T06:27:25.404Z,22.6
2023-11-10T06:28:27.540Z,22.6
2023-11-10T06:29:29.341Z,22.6
2023-11-10T06:30:31.167Z,22.6
2023-11-10T06:31:33.136Z,22.6
2023-11-10T06:32:35.207Z,22.6
2023-11-10T06:33:37.439Z,22.6
2023-11-10T06:34:39.361Z,22.6
2023-11-10T06:35:41.253Z,22.6
2023-11-10T06:36:43.192Z,22.5
2023-11-10T06:37:45.531Z,22.5
2023-11-10T06:38:47.313Z,22.5
2023-11-10T06:39:49.210Z,22.4
2023-11-10T06:40:51.319Z,22.5
2023-11-10T06:41:53.181Z,22.5
2023-11-10T06:42:55.111Z,22.5
2023-11-10T06:43:57.237Z,22.5
2023-11-10T06:45:01.717Z,22.4
2023-11-10T06:46:03.527Z,22.3
2023-11-10T06:47:05.633Z,22.3
2023-11-10T06:48:07.737Z,22.3
2023-11-10T06:49:09.626Z,22.4
2023-11-10T06:50:11.398Z,22.5
2023-11-10T06:51:13.168Z,22.5
2023-11-10T06:52:14.939Z,22.4
2023-11-10T06:53:16.849Z,22.4
2023-11-10T06:54:18.658Z,22.5
2023-11-10T06:55:20.748Z,22.6
2023-11-10T06:56:22.511Z,22.7
2023-11-10T06:57:24.373Z,22.6
2023-11-10T06:58:26.276Z,22.5
2023-11-10T06:59:28.079Z,22.5
2023-11-10T07:00:30.062Z,22.5
2023-11-10T07:01:32.290Z,22.5
2023-11-10T07:02:34.467Z,22.5
2023-11-10T07:03:36.864Z,22.5
2023-11-10T07:04:39.754Z,22.4
2023-11-10T07:05:42.231Z,22.8
2023-11-10T07:06:44.037Z,22.6
2023-11-10T07:07:46.210Z,22.7
2023-11-10T07:08:48.064Z,22.5
2023-11-10T07:09:49.965Z,22.5
2023-11-10T07:10:52.013Z,22.3
2023-11-10T07:11:53.798Z,22.3
2023-11-10T07:12:55.725Z,22.3
2023-11-10T07:13:57.754Z,22.3
2023-11-10T07:14:59.522Z,22.3
2023-11-10T07:16:01.641Z,22.6
2023-11-10T07:17:03.697Z,22.5
2023-11-10T07:18:05.786Z,22.4
2023-11-10T07:19:07.812Z,22.4
2023-11-10T07:20:09.718Z,22.5
2023-11-10T07:21:11.576Z,22.5
2023-11-10T07:22:13.396Z,22.6
2023-11-10T07:23:15.199Z,22.5
2023-11-10T07:24:16.982Z,22.7
2023-11-10T07:25:18.704Z,22.8
2023-11-10T07:26:20.458Z,22.6
2023-11-10T07:27:22.255Z,22.8
2023-11-10T07:28:24.144Z,22.6
2023-11-10T07:29:26.007Z,22.5
2023-11-10T07:30:27.861Z,22.5
2023-11-10T07:31:29.827Z,22.5
2023-11-10T07:32:32.244Z,22.4
2023-11-10T07:33:34.482Z,22.4
2023-11-10T07:34:36.662Z,22.3
2023-11-10T07:35:38.543Z,22.6
2023-11-10T07:36:40.557Z,22.5
2023-11-10T07:37:42.406Z,22.3
2023-11-10T07:38:44.177Z,22.3
2023-11-10T07:39:46.096Z,22.3
2023-11-10T07:40:48.235Z,22.4
2023-11-10T07:41:49.983Z,22.5
2023-11-10T07:42:51.943Z,22.6
2023-11-10T07:43:53.962Z,22.5
2023-11-10T07:44:55.799Z,22.5
2023-11-10T07:45:57.692Z,22.6
2023-11-10T07:46:59.869Z,22.6
2023-11-10T07:48:02.096Z,22.5
2023-11-10T07:49:04.284Z,22.5
2023-11-10T07:50:06.214Z,22.6
2023-11-10T07:51:08.034Z,22.5
2023-11-10T07:52:09.839Z,22.5
2023-11-10T07:53:11.695Z,22.6
2023-11-10T07:54:13.505Z,22.4
2023-11-10T07:55:15.434Z,22.5
2023-11-10T07:56:17.337Z,22.5
2023-11-10T07:57:19.405Z,22.5
2023-11-10T07:58:21.327Z,22.3
2023-11-10T07:59:23.120Z,22.3
2023-11-10T08:00:24.925Z,22.4
2023-11-10T08:01:26.746Z,22.5
2023-11-10T08:02:28.642Z,22.4
2023-11-10T08:03:30.624Z,22.4
2023-11-10T08:04:33.092Z,22.4
2023-11-10T08:05:35.392Z,22.4
2023-11-10T08:06:37.534Z,22.5
2023-11-10T08:07:39.397Z,22.5
2023-11-10T08:08:41.166Z,22.6
2023-11-10T08:09:43.008Z,22.6
2023-11-10T08:10:45.080Z,22.6
2023-11-10T08:11:55.446Z,22.6
2023-11-10T08:12:57.444Z,22.6
2023-11-10T08:13:59.555Z,22.6
2023-11-10T08:15:01.394Z,22.5
2023-11-10T08:16:04.532Z,22.5
2023-11-10T08:17:06.670Z,22.5
2023-11-10T08:18:08.442Z,22.6
2023-11-10T08:19:10.464Z,22.6
2023-11-10T08:20:12.272Z,22.6
2023-11-10T08:21:14.097Z,22.6
2023-11-10T08:22:15.939Z,22.6
2023-11-10T08:23:17.734Z,22.6
2023-11-10T08:24:19.503Z,22.6
2023-11-10T08:25:21.348Z,22.6
2023-11-10T08:26:23.153Z,22.6
2023-11-10T08:27:24.989Z,22.6
2023-11-10T08:28:26.921Z,22.6
2023-11-10T08:29:28.700Z,22.6
2023-11-10T08:30:30.533Z,22.6
2023-11-10T08:31:32.501Z,22.8
2023-11-10T08:32:34.495Z,22.9
2023-11-10T08:33:36.391Z,23
2023-11-10T08:34:38.407Z,23
2023-11-10T08:35:40.398Z,22.9
2023-11-10T08:36:42.237Z,22.9
2023-11-10T08:37:44.099Z,22.9
2023-11-10T08:38:45.895Z,22.8
2023-11-10T08:39:47.782Z,22.9
2023-11-10T08:40:49.724Z,23
2023-11-10T08:41:51.488Z,22.9
2023-11-10T08:42:53.306Z,23
2023-11-10T08:43:55.282Z,23.1
2023-11-10T08:44:57.152Z,23.1
2023-11-10T08:45:59.062Z,23
2023-11-10T08:47:01.124Z,23.3
2023-11-10T08:48:02.947Z,23.3
2023-11-10T08:49:04.991Z,23.2
2023-11-10T08:50:07.381Z,23.2
2023-11-10T08:51:09.204Z,23.3
2023-11-10T08:52:11.015Z,23.1
2023-11-10T08:53:12.822Z,23.1
2023-11-10T08:54:14.592Z,23.1
2023-11-10T08:55:16.322Z,23.1
2023-11-10T08:56:18.074Z,23.1
2023-11-10T08:57:20.093Z,23.1
2023-11-10T08:58:21.882Z,23
2023-11-10T08:59:23.672Z,23.2
2023-11-10T09:00:25.500Z,23.1
2023-11-10T09:01:27.584Z,23.2
2023-11-10T09:02:29.481Z,23.1
2023-11-10T09:03:31.727Z,23.1
2023-11-10T09:04:33.930Z,23.1
2023-11-10T09:05:36.186Z,23.2
2023-11-10T09:06:38.198Z,23.1
2023-11-10T09:07:40.416Z,23
2023-11-10T09:08:42.223Z,23
2023-11-10T09:09:44.109Z,23
2023-11-10T09:10:46.180Z,23
2023-11-10T09:11:47.968Z,23
2023-11-10T09:12:50.207Z,23
2023-11-10T09:13:53.137Z,23
2023-11-10T09:14:54.884Z,23
2023-11-10T09:16:03.078Z,23
2023-11-10T09:17:05.464Z,23
2023-11-10T09:18:07.638Z,23
2023-11-10T09:19:09.696Z,23
2023-11-10T09:20:11.812Z,23
2023-11-10T09:21:13.636Z,22.9
2023-11-10T09:22:15.523Z,22.9
2023-11-10T09:23:17.469Z,23
2023-11-10T09:24:19.556Z,22.8
2023-11-10T09:25:21.376Z,22.9
2023-11-10T09:26:23.987Z,22.9
2023-11-10T09:27:25.789Z,22.9
2023-11-10T09:28:27.779Z,22.9
2023-11-10T09:29:29.550Z,22.9
2023-11-10T09:30:31.403Z,23
2023-11-10T09:31:33.248Z,22.9
2023-11-10T09:32:35.271Z,23
2023-11-10T09:33:42.198Z,23.1
2023-11-10T09:34:44.305Z,23.1
2023-11-10T09:35:46.328Z,23.2
2023-11-10T09:36:48.117Z,23.1
2023-11-10T09:37:50.013Z,23.1
2023-11-10T09:38:51.881Z,23.1
2023-11-10T09:39:55.366Z,23.3
2023-11-10T09:41:00.707Z,23.1
2023-11-10T09:42:02.509Z,23.2
2023-11-10T09:43:04.511Z,23.2
2023-11-10T09:44:06.572Z,23.2
2023-11-10T09:45:08.277Z,23.2
2023-11-10T09:46:10.284Z,23.3
2023-11-10T09:47:12.510Z,23.2
2023-11-10T09:48:14.302Z,23.2
2023-11-10T09:49:16.024Z,23.3
2023-11-10T09:50:17.778Z,23.2
2023-11-10T09:51:19.562Z,23.2
2023-11-10T09:52:21.452Z,23.2
2023-11-10T09:53:23.369Z,23.2
2023-11-10T09:54:25.258Z,23.2
2023-11-10T09:55:27.442Z,23.2
2023-11-10T09:56:29.258Z,23.3
2023-11-10T09:57:32.669Z,23.2
2023-11-10T09:58:34.589Z,23.2
2023-11-10T09:59:36.392Z,23.2
2023-11-10T10:00:38.409Z,23.2
2023-11-10T10:01:40.497Z,23.2
2023-11-10T10:02:42.850Z,23.2
2023-11-10T10:03:45.504Z,23.2
2023-11-10T10:04:48.301Z,23.2
2023-11-10T10:05:50.150Z,23.3
2023-11-10T10:06:51.966Z,23.3
2023-11-10T10:07:53.913Z,23.4
2023-11-10T10:08:55.715Z,23.4
2023-11-10T10:09:57.536Z,23.4
2023-11-10T10:10:59.650Z,23.3
2023-11-10T10:12:01.405Z,23.2
2023-11-10T10:13:03.402Z,23.3
2023-11-10T10:14:05.617Z,23.3
2023-11-10T10:15:07.516Z,23.2
2023-11-10T10:16:09.679Z,23.2
2023-11-10T10:17:11.796Z,23.3
2023-11-10T10:18:13.745Z,23.2
2023-11-10T10:19:15.597Z,23.1
2023-11-10T10:20:17.456Z,23.2
2023-11-10T10:21:19.282Z,23.4
2023-11-10T10:22:21.075Z,23.2
2023-11-10T10:23:22.878Z,23.2
2023-11-10T10:24:24.778Z,23.3
2023-11-10T10:25:26.804Z,23.2
2023-11-10T10:26:28.580Z,23.3
2023-11-10T10:27:30.628Z,23.2
2023-11-10T10:28:32.495Z,23.2
2023-11-10T10:29:34.252Z,23.2
2023-11-10T10:30:36.287Z,23.2
2023-11-10T10:31:38.739Z,23.2
2023-11-10T10:32:41.226Z,23.4
2023-11-10T10:33:43.418Z,23.3
2023-11-10T10:34:46.037Z,23.3
2023-11-10T10:35:48.175Z,23.4
2023-11-10T10:36:50.082Z,23.4
2023-11-10T10:37:52.006Z,23.4
2023-11-10T10:38:53.801Z,23.2
2023-11-10T10:39:55.686Z,23.5
2023-11-10T10:40:57.689Z,23.4
2023-11-10T10:41:59.470Z,23.4
2023-11-10T10:43:01.350Z,23.5
2023-11-10T10:44:11.312Z,23.5
2023-11-10T10:45:13.561Z,23.4
2023-11-10T10:46:15.677Z,23.5
2023-11-10T10:47:18.061Z,23.6
2023-11-10T10:48:19.816Z,23.5
2023-11-10T10:49:21.588Z,23.6
2023-11-10T10:50:25.292Z,23.6
2023-11-10T10:51:27.163Z,23.5
2023-11-10T10:52:28.964Z,23.5
2023-11-10T10:53:30.698Z,23.4
2023-11-10T10:54:32.677Z,23.4
2023-11-10T10:55:34.821Z,23.4
2023-11-10T10:56:45.749Z,23.4
2023-11-10T10:57:47.969Z,23.4
2023-11-10T10:58:49.847Z,23.4
2023-11-10T10:59:51.598Z,23.4
2023-11-10T11:00:53.527Z,23.4
2023-11-10T11:01:55.786Z,23.4
2023-11-10T11:02:57.840Z,23.4
2023-11-10T11:04:00.190Z,23.5
2023-11-10T11:05:02.394Z,23.5
2023-11-10T11:06:04.202Z,23.6
2023-11-10T11:07:06.014Z,23.8
2023-11-10T11:08:08.053Z,23.8
2023-11-10T11:09:09.837Z,23.8
2023-11-10T11:10:11.586Z,23.8
2023-11-10T11:11:13.585Z,23.7
2023-11-10T11:12:15.384Z,23.7
2023-11-10T11:13:17.373Z,23.8
2023-11-10T11:14:19.546Z,23.9
2023-11-10T11:15:21.369Z,23.8
2023-11-10T11:16:23.261Z,23.8
2023-11-10T11:17:25.159Z,23.8
2023-11-10T11:18:26.954Z,23.8
2023-11-10T11:19:28.995Z,23.8
2023-11-10T11:20:30.770Z,23.8
2023-11-10T11:21:32.771Z,23.8
2023-11-10T11:22:34.661Z,23.8
2023-11-10T11:23:36.493Z,23.8
2023-11-10T11:24:38.806Z,23.8
2023-11-10T11:25:40.739Z,23.8
2023-11-10T11:26:42.509Z,23.8
2023-11-10T11:27:44.373Z,23.8
2023-11-10T11:28:46.297Z,23.7
2023-11-10T11:29:48.076Z,23.8
2023-11-10T11:30:50.008Z,23.8
2023-11-10T11:31:52.220Z,23.9
2023-11-10T11:32:54.606Z,24
2023-11-10T11:33:56.650Z,24
2023-11-10T11:34:58.737Z,23.9
2023-11-10T11:36:00.667Z,23.9
2023-11-10T11:37:02.815Z,24
2023-11-10T11:38:04.763Z,24
2023-11-10T11:39:06.597Z,23.9
2023-11-10T11:40:08.496Z,24
2023-11-10T11:41:10.651Z,24.1
2023-11-10T11:42:12.368Z,24.2
2023-11-10T11:43:14.219Z,24.4
2023-11-10T11:44:15.961Z,24.5
2023-11-10T11:45:17.713Z,24.5
2023-11-10T11:46:19.776Z,24.5
2023-11-10T11:47:21.939Z,24.5
2023-11-10T11:48:23.756Z,24.4
2023-11-10T11:49:25.578Z,24.3
2023-11-10T11:50:27.311Z,24.3
2023-11-10T11:51:29.206Z,24.3
2023-11-10T11:52:31.075Z,24.3
2023-11-10T11:53:32.825Z,24.3
2023-11-10T11:54:34.763Z,24.4
2023-11-10T11:55:36.821Z,24.4
2023-11-10T11:56:38.601Z,24.2
2023-11-10T11:57:40.569Z,24.4
2023-11-10T11:58:42.664Z,24.4
2023-11-10T11:59:44.432Z,24.4
2023-11-10T12:00:46.307Z,24.5
2023-11-10T12:01:48.206Z,24.5
2023-11-10T12:02:50.353Z,24.4
2023-11-10T12:03:52.566Z,24.4
2023-11-10T12:04:54.903Z,24.3
2023-11-10T12:05:56.690Z,24.5
2023-11-10T12:06:58.501Z,24.5
2023-11-10T12:08:00.413Z,24.5
2023-11-10T12:09:02.146Z,24.4
2023-11-10T12:10:03.998Z,24.4
2023-11-10T12:11:06.230Z,24.4
2023-11-10T12:12:08.081Z,24.3
2023-11-10T12:13:10.043Z,24.5
2023-11-10T12:14:11.834Z,24.4
2023-11-10T12:15:13.612Z,24.5
2023-11-10T12:16:29.038Z,24.6
2023-11-10T12:17:41.934Z,24.6
2023-11-10T12:18:43.833Z,24.5
2023-11-10T12:19:45.821Z,24.5
2023-11-10T12:20:47.945Z,24.5
2023-11-10T12:21:50.045Z,24.4
2023-11-10T12:22:52.979Z,24.4
2023-11-10T12:23:54.778Z,24.3
2023-11-10T12:24:56.706Z,24.4
2023-11-10T12:25:58.642Z,24.5
2023-11-10T12:27:00.405Z,24.5
2023-11-10T12:28:02.611Z,24.5
2023-11-10T12:29:04.647Z,24.4
2023-11-10T12:30:06.498Z,24.4
2023-11-10T12:31:08.378Z,24.6
2023-11-10T12:32:10.356Z,24.6
2023-11-10T12:33:12.185Z,24.5
2023-11-10T12:34:14.554Z,24.5
2023-11-10T12:35:16.646Z,24.5
2023-11-10T12:36:18.432Z,24.5
2023-11-10T12:37:20.332Z,24.5
2023-11-10T12:38:22.174Z,24.5
2023-11-10T12:39:24.174Z,24.5
2023-11-10T12:40:26.292Z,24.5
2023-11-10T12:41:28.012Z,24.5
2023-11-10T12:42:30.858Z,24.5
2023-11-10T12:43:33.026Z,24.4
2023-11-10T12:44:34.970Z,24.4
2023-11-10T12:45:37.231Z,24.4
2023-11-10T12:46:39.332Z,24.5
2023-11-10T12:47:41.686Z,24.4
2023-11-10T12:48:43.726Z,24.5
2023-11-10T12:49:46.148Z,24.5
2023-11-10T12:50:47.992Z,24.5
2023-11-10T12:51:49.847Z,24.4
2023-11-10T12:52:51.659Z,24.5
2023-11-10T12:53:53.482Z,24.6
2023-11-10T12:54:55.332Z,24.6
2023-11-10T12:55:57.218Z,24.6
2023-11-10T12:56:58.956Z,24.5
2023-11-10T12:58:00.789Z,24.6
2023-11-10T12:59:02.804Z,24.7
2023-11-10T13:00:04.592Z,24.6
2023-11-10T13:01:06.514Z,24.6
2023-11-10T13:02:08.665Z,24.5
2023-11-10T13:03:10.775Z,24.5
2023-11-10T13:04:13.212Z,24.5
2023-11-10T13:05:15.298Z,24.4
2023-11-10T13:06:17.315Z,24.4
2023-11-10T13:07:19.314Z,24.4
2023-11-10T13:08:21.052Z,24.4
2023-11-10T13:09:22.861Z,24.4
2023-11-10T13:10:24.624Z,24.4
2023-11-10T13:11:26.378Z,24.5
2023-11-10T13:12:28.269Z,24.4
2023-11-10T13:13:30.095Z,24.5
2023-11-10T13:14:31.896Z,24.5
2023-11-10T13:15:34.033Z,24.5
2023-11-10T13:16:36.365Z,24.5
2023-11-10T13:17:38.734Z,24.5
2023-11-10T13:18:40.761Z,24.5
2023-11-10T13:19:42.806Z,24.5
2023-11-10T13:20:44.649Z,24.5
2023-11-10T13:21:46.664Z,24.5
2023-11-10T13:22:48.802Z,24.6
2023-11-10T13:23:50.957Z,24.6
2023-11-10T13:24:52.713Z,24.5
2023-11-10T13:25:54.734Z,24.5
2023-11-10T13:26:56.516Z,24.5
2023-11-10T13:27:58.342Z,24.5
2023-11-10T13:29:00.328Z,24.5
2023-11-10T13:30:02.191Z,24.5
2023-11-10T13:31:24.705Z,24.5
2023-11-10T13:32:30.841Z,24.5
2023-11-10T13:33:33.071Z,24.5
2023-11-10T13:34:34.845Z,24.5
2023-11-10T13:35:36.641Z,24.6
2023-11-10T13:36:38.443Z,24.6
2023-11-10T13:37:40.535Z,24.5
2023-11-10T13:38:42.366Z,24.4
2023-11-10T13:39:44.343Z,24.5
2023-11-10T13:40:46.577Z,24.5
2023-11-10T13:41:50.636Z,24.6
2023-11-10T13:42:52.498Z,24.7
2023-11-10T13:43:57.696Z,24.7
2023-11-10T13:44:59.497Z,24.7
2023-11-10T13:46:01.634Z,24.6
2023-11-10T13:47:03.871Z,24.6
2023-11-10T13:48:05.801Z,24.8
2023-11-10T13:49:07.951Z,24.7
2023-11-10T13:50:09.999Z,24.7
2023-11-10T13:51:11.780Z,24.6